createdAt,value
2022-09-26T00:00:27.718Z,85.99
2022-09-26T00:03:52.134Z,86.10
2022-09-26T00:07:15.119Z,85.60
2022-09-26T00:10:36.799Z,85.54
2022-09-26T00:14:00.841Z,85.44
2022-09-26T00:17:22.236Z,85.57
2022-09-26T00:20:43.405Z,85.47
2022-09-26T00:24:06.518Z,85.64
2022-09-26T00:27:27.766Z,84.89
2022-09-26T00:30:49.117Z,85.23
2022-09-26T00:34:12.774Z,85.02
2022-09-26T00:37:34.634Z,84.74
2022-09-26T00:40:57.403Z,84.75
2022-09-26T00:44:41.919Z,84.90
2022-09-26T00:48:06.707Z,85.38
2022-09-26T00:51:28.317Z,85.40
2022-09-26T00:54:55.415Z,85.20
2022-09-26T00:58:22.171Z,85.29
2022-09-26T01:01:44.101Z,85.18
2022-09-26T01:05:08.125Z,85.36
2022-09-26T01:08:34.137Z,85.25
2022-09-26T01:11:57.144Z,85.76
2022-09-26T01:15:20.815Z,85.55
2022-09-26T01:18:44.171Z,85.40
2022-09-26T01:22:36.596Z,85.64
2022-09-26T01:26:35.204Z,85.35
2022-09-26T01:30:07.424Z,85.34
2022-09-26T01:33:54.514Z,85.13
2022-09-26T01:37:26.597Z,84.62
2022-09-26T01:41:03.059Z,84.68
2022-09-26T01:44:32.136Z,84.58
2022-09-26T01:48:03.082Z,84.25
2022-09-26T01:51:31.730Z,84.24
2022-09-26T01:54:58.651Z,83.97
2022-09-26T01:58:24.768Z,84.36
2022-09-26T02:01:49.342Z,83.92
2022-09-26T02:05:19.596Z,84.08
2022-09-26T02:08:45.424Z,83.66
2022-09-26T02:12:09.718Z,83.65
2022-09-26T02:15:35.744Z,84.24
2022-09-26T02:19:02.660Z,84.31
2022-09-26T02:22:28.927Z,84.30
2022-09-26T02:25:50.966Z,84.00
2022-09-26T02:29:15.114Z,84.06
2022-09-26T02:32:37.277Z,84.24
2022-09-26T02:35:59.140Z,83.88
2022-09-26T02:39:26.063Z,84.36
2022-09-26T02:43:13.522Z,84.25
2022-09-26T02:46:57.997Z,84.09
2022-09-26T02:50:33.584Z,84.17
2022-09-26T02:54:08.042Z,84.34
2022-09-26T02:57:46.784Z,84.00
2022-09-26T03:01:17.983Z,84.17
2022-09-26T03:04:48.267Z,83.82
2022-09-26T03:08:15.149Z,84.00
2022-09-26T03:11:38.466Z,83.98
2022-09-26T03:15:05.919Z,84.27
2022-09-26T03:18:32.137Z,84.49
2022-09-26T03:21:54.520Z,84.82
2022-09-26T03:25:19.660Z,85.09
2022-09-26T03:28:48.065Z,85.06
2022-09-26T03:32:11.170Z,85.33
2022-09-26T03:35:32.833Z,85.65
2022-09-26T03:38:54.407Z,84.84
2022-09-26T03:42:32.622Z,85.03
2022-09-26T03:45:55.084Z,84.85
2022-09-26T03:49:21.425Z,84.65
2022-09-26T03:52:43.034Z,84.57
2022-09-26T03:56:06.725Z,84.54
2022-09-26T03:59:28.045Z,85.24
2022-09-26T04:02:49.965Z,84.73
2022-09-26T04:06:27.170Z,84.63
2022-09-26T04:09:48.790Z,85.41
2022-09-26T04:13:11.149Z,85.03
2022-09-26T04:16:33.520Z,84.59
2022-09-26T04:20:14.726Z,85.03
2022-09-26T04:23:40.946Z,85.44
2022-09-26T04:27:03.097Z,85.61
2022-09-26T04:30:25.275Z,84.99
2022-09-26T04:33:51.864Z,85.31
2022-09-26T04:37:13.359Z,85.55
2022-09-26T04:40:42.069Z,85.64
2022-09-26T04:44:05.870Z,86.35
2022-09-26T04:47:27.452Z,86.58
2022-09-26T04:51:09.277Z,86.01
2022-09-26T04:54:31.720Z,86.07
2022-09-26T04:57:54.298Z,86.10
2022-09-26T05:01:18.181Z,86.54
2022-09-26T05:05:09.628Z,85.98
2022-09-26T05:08:31.076Z,86.63
2022-09-26T05:11:52.935Z,86.67
2022-09-26T05:15:15.982Z,85.88
2022-09-26T05:18:39.185Z,85.95
2022-09-26T05:22:00.479Z,86.13
2022-09-26T05:25:47.862Z,86.35
2022-09-26T05:29:10.248Z,86.79
2022-09-26T05:32:58.110Z,86.93
2022-09-26T05:36:19.886Z,86.43
2022-09-26T05:39:58.695Z,87.21
2022-09-26T05:43:22.757Z,87.54
2022-09-26T05:46:46.033Z,86.45
2022-09-26T05:50:10.891Z,86.52
2022-09-26T05:53:34.346Z,85.94
2022-09-26T05:56:55.795Z,86.26
2022-09-26T06:00:17.001Z,86.31
2022-09-26T06:03:44.041Z,86.58
2022-09-26T06:07:14.255Z,86.86
2022-09-26T06:10:37.713Z,86.78
2022-09-26T06:14:00.910Z,86.07
2022-09-26T06:17:24.072Z,86.45
2022-09-26T06:20:45.383Z,86.88
2022-09-26T06:24:09.346Z,86.16
2022-09-26T06:27:34.962Z,86.84
2022-09-26T06:30:57.501Z,86.55
2022-09-26T06:34:41.147Z,86.55
2022-09-26T06:38:22.598Z,86.41
2022-09-26T06:41:46.825Z,85.80
2022-09-26T06:45:45.920Z,85.85
2022-09-26T06:49:29.551Z,85.93
2022-09-26T06:53:10.558Z,85.64
2022-09-26T06:56:31.993Z,85.57
2022-09-26T06:59:55.333Z,85.61
2022-09-26T07:03:26.651Z,85.97
2022-09-26T07:07:00.041Z,85.76
2022-09-26T07:10:22.153Z,85.51
2022-09-26T07:13:51.374Z,84.83
2022-09-26T07:17:16.547Z,85.19
2022-09-26T07:20:42.755Z,85.33
2022-09-26T07:24:18.266Z,85.27
2022-09-26T07:27:41.415Z,84.44
2022-09-26T07:31:03.095Z,83.63
2022-09-26T07:34:45.163Z,83.09
2022-09-26T07:38:08.620Z,82.79
2022-09-26T07:41:31.475Z,81.89
2022-09-26T07:45:20.968Z,81.47
2022-09-26T07:48:52.854Z,80.72
2022-09-26T07:52:25.249Z,79.11
2022-09-26T07:56:12.927Z,78.88
2022-09-26T07:59:54.343Z,78.76
2022-09-26T08:03:35.043Z,77.88
2022-09-26T08:07:02.748Z,77.79
2022-09-26T08:10:26.985Z,78.19
2022-09-26T08:14:14.363Z,77.10
2022-09-26T08:17:51.907Z,76.74
2022-09-26T08:21:13.324Z,74.81
2022-09-26T08:24:34.987Z,74.93
2022-09-26T08:28:00.189Z,73.40
2022-09-26T08:31:22.907Z,74.46
2022-09-26T08:34:45.297Z,72.55
2022-09-26T08:38:27.450Z,72.49
2022-09-26T08:42:34.339Z,70.59
2022-09-26T08:46:44.961Z,69.92
2022-09-26T08:50:24.196Z,70.03
2022-09-26T08:53:52.971Z,69.34
2022-09-26T08:57:26.830Z,69.95
2022-09-26T09:00:53.101Z,70.30
2022-09-26T09:04:21.714Z,69.49
2022-09-26T09:07:43.574Z,69.53
2022-09-26T09:11:18.868Z,69.64
2022-09-26T09:15:26.304Z,69.18
2022-09-26T09:19:06.777Z,68.63
2022-09-26T09:23:09.775Z,68.11
2022-09-26T09:30:26.705Z,66.66
2022-09-26T09:33:57.519Z,66.17
2022-09-26T09:37:44.012Z,65.90
2022-09-26T09:41:24.123Z,65.07
2022-09-26T09:44:48.603Z,65.34
2022-09-26T09:48:13.208Z,63.99
2022-09-26T09:51:43.539Z,63.27
2022-09-26T09:55:17.185Z,64.17
2022-09-26T09:59:03.591Z,63.86
2022-09-26T10:02:37.515Z,63.95
2022-09-26T10:06:46.382Z,63.61
2022-09-26T10:09:51.837Z,62.72
2022-09-26T10:13:37.962Z,61.78
2022-09-26T10:17:25.102Z,62.42
2022-09-26T10:20:53.122Z,62.27
2022-09-26T10:24:25.006Z,61.82
2022-09-26T10:27:56.203Z,61.71
2022-09-26T10:31:24.618Z,61.19
2022-09-26T10:35:19.795Z,60.42
2022-09-26T10:39:05.726Z,60.87
2022-09-26T10:42:32.027Z,59.61
2022-09-26T10:45:57.388Z,59.53
2022-09-26T10:49:47.687Z,58.36
2022-09-26T10:53:36.375Z,57.12
2022-09-26T10:56:59.189Z,56.87
2022-09-26T11:00:38.825Z,57.16
2022-09-26T11:04:35.987Z,57.68
2022-09-26T11:08:30.362Z,55.87
2022-09-26T11:12:29.162Z,56.03
2022-09-26T11:16:02.043Z,54.81
2022-09-26T11:19:39.407Z,56.06
2022-09-26T11:23:08.891Z,56.49
2022-09-26T11:26:40.422Z,56.10
2022-09-26T11:30:09.188Z,54.76
2022-09-26T11:33:34.695Z,55.17
2022-09-26T11:38:03.458Z,53.38
2022-09-26T11:41:38.927Z,52.88
2022-09-26T11:45:10.971Z,53.47
2022-09-26T11:49:10.641Z,53.33
2022-09-26T11:53:05.368Z,53.93
2022-09-26T11:56:40.409Z,53.72
2022-09-26T12:00:12.123Z,54.00
2022-09-26T12:04:01.170Z,54.60
2022-09-26T12:07:34.331Z,54.09
2022-09-26T12:11:05.230Z,55.21
2022-09-26T12:14:43.262Z,54.69
2022-09-26T12:18:13.799Z,53.51
2022-09-26T12:22:07.529Z,54.33
2022-09-26T12:25:37.154Z,55.11
2022-09-26T12:29:31.623Z,54.20
2022-09-26T12:33:05.784Z,53.03
2022-09-26T12:36:47.367Z,53.36
2022-09-26T12:40:32.973Z,53.71
2022-09-26T12:44:25.331Z,52.55
2022-09-26T12:48:04.593Z,52.15
2022-09-26T12:51:37.464Z,52.13
2022-09-26T12:55:19.840Z,51.24
2022-09-26T12:58:55.329Z,52.20
2022-09-26T13:02:37.239Z,51.56
2022-09-26T13:06:32.112Z,51.29
2022-09-26T13:10:17.815Z,51.52
2022-09-26T13:14:06.119Z,50.69
2022-09-26T13:17:34.403Z,49.92
2022-09-26T13:21:02.937Z,49.56
2022-09-26T13:24:31.874Z,49.26
2022-09-26T13:28:03.943Z,48.57
2022-09-26T13:31:32.733Z,48.89
2022-09-26T13:35:00.742Z,48.97
2022-09-26T13:38:37.990Z,49.24
2022-09-26T13:42:08.553Z,49.83
2022-09-26T13:45:46.133Z,50.13
2022-09-26T13:49:27.921Z,49.70
2022-09-26T13:53:02.280Z,50.89
2022-09-26T13:56:45.503Z,52.33
2022-09-26T14:00:40.582Z,52.30
2022-09-26T14:04:19.581Z,52.54
2022-09-26T14:08:08.975Z,51.41
2022-09-26T14:11:49.139Z,50.96
2022-09-26T14:15:19.068Z,51.07
2022-09-26T14:18:55.208Z,51.96
2022-09-26T14:22:37.610Z,49.94
2022-09-26T14:26:06.741Z,49.55
2022-09-26T14:29:36.686Z,49.97
2022-09-26T14:33:10.281Z,49.78
2022-09-26T14:36:35.201Z,49.97
2022-09-26T14:40:17.937Z,50.18
2022-09-26T14:43:42.113Z,49.60
2022-09-26T14:47:08.339Z,48.56
2022-09-26T14:50:35.817Z,49.06
2022-09-26T14:54:02.239Z,49.47
2022-09-26T14:57:30.790Z,50.36
2022-09-26T15:00:56.179Z,49.70
2022-09-26T15:04:21.681Z,49.86
2022-09-26T15:07:46.674Z,49.48
2022-09-26T15:11:08.814Z,49.93
2022-09-26T15:14:38.794Z,50.32
2022-09-26T15:18:08.470Z,49.50
2022-09-26T15:21:34.021Z,48.48
2022-09-26T15:25:07.662Z,48.83
2022-09-26T15:28:34.215Z,49.31
2022-09-26T15:31:57.678Z,49.03
2022-09-26T15:35:20.675Z,50.11
2022-09-26T15:38:46.914Z,49.42
2022-09-26T15:42:43.448Z,50.41
2022-09-26T15:46:19.470Z,50.05
2022-09-26T15:49:42.555Z,50.75
2022-09-26T15:53:10.752Z,50.53
2022-09-26T15:56:37.525Z,50.32
2022-09-26T16:00:01.236Z,50.46
2022-09-26T16:03:43.168Z,51.14
2022-09-26T16:07:15.070Z,50.40
2022-09-26T16:10:36.613Z,50.72
2022-09-26T16:13:58.266Z,51.56
2022-09-26T16:17:24.660Z,50.83
2022-09-26T16:20:46.354Z,51.45
2022-09-26T16:24:33.273Z,51.52
2022-09-26T16:28:03.346Z,51.57
2022-09-26T16:31:28.817Z,52.04
2022-09-26T16:34:50.713Z,51.94
2022-09-26T16:38:23.867Z,51.90
2022-09-26T16:42:03.404Z,51.96
2022-09-26T16:45:25.259Z,51.93
2022-09-26T16:48:55.092Z,52.53
2022-09-26T16:52:37.846Z,52.95
2022-09-26T16:55:59.642Z,53.36
2022-09-26T16:59:28.690Z,53.62
2022-09-26T17:02:49.680Z,53.62
2022-09-26T17:06:11.411Z,53.68
2022-09-26T17:09:34.114Z,53.34
2022-09-26T17:12:56.412Z,53.49
2022-09-26T17:16:20.534Z,53.79
2022-09-26T17:19:44.451Z,53.81
2022-09-26T17:23:27.656Z,54.93
2022-09-26T17:26:54.405Z,54.82
2022-09-26T17:30:18.611Z,55.35
2022-09-26T17:33:44.046Z,55.94
2022-09-26T17:37:05.831Z,56.45
2022-09-26T17:40:29.588Z,56.19
2022-09-26T17:43:59.027Z,56.52
2022-09-26T17:47:20.852Z,56.58
2022-09-26T17:50:44.013Z,56.24
2022-09-26T17:54:07.491Z,56.87
2022-09-26T17:57:33.549Z,56.64
2022-09-26T18:00:57.391Z,57.84
2022-09-26T18:04:19.560Z,58.51
2022-09-26T18:07:44.458Z,58.98
2022-09-26T18:11:11.948Z,59.65
2022-09-26T18:14:35.438Z,60.03
2022-09-26T18:17:57.651Z,59.64
2022-09-26T18:21:20.125Z,59.11
2022-09-26T18:24:45.350Z,59.87
2022-09-26T18:28:12.795Z,59.84
2022-09-26T18:31:37.823Z,59.90
2022-09-26T18:35:00.077Z,59.99
2022-09-26T18:38:22.166Z,60.15
2022-09-26T18:41:46.160Z,60.50
2022-09-26T18:45:09.495Z,60.87
2022-09-26T18:48:36.144Z,60.50
2022-09-26T18:51:57.890Z,61.13
2022-09-26T18:55:38.510Z,61.10
2022-09-26T18:59:01.540Z,61.31
2022-09-26T19:02:26.274Z,61.38
2022-09-26T19:05:48.256Z,61.47
2022-09-26T19:09:14.871Z,61.38
2022-09-26T19:12:39.475Z,61.32
2022-09-26T19:16:02.435Z,61.53
2022-09-26T19:19:25.193Z,61.48
2022-09-26T19:22:46.632Z,61.23
2022-09-26T19:26:10.420Z,61.42
2022-09-26T19:29:38.107Z,61.72
2022-09-26T19:33:01.275Z,61.35
2022-09-26T19:36:22.934Z,61.12
2022-09-26T19:39:44.600Z,60.81
2022-09-26T19:43:06.507Z,60.62
2022-09-26T19:46:30.001Z,60.34
2022-09-26T19:49:53.832Z,60.62
2022-09-26T19:53:17.306Z,60.50
2022-09-26T19:56:39.163Z,60.13
2022-09-26T20:00:00.509Z,60.20
2022-09-26T20:03:26.004Z,59.94
2022-09-26T20:06:49.131Z,59.90
2022-09-26T20:10:15.854Z,59.68
2022-09-26T20:13:51.445Z,60.02
2022-09-26T20:17:18.344Z,60.06
2022-09-26T20:20:40.161Z,60.10
2022-09-26T20:24:03.722Z,60.02
2022-09-26T20:27:27.966Z,60.03
2022-09-26T20:30:56.656Z,59.46
2022-09-26T20:34:18.320Z,59.86
2022-09-26T20:37:42.936Z,59.77
2022-09-26T20:41:13.401Z,59.73
2022-09-26T20:44:37.405Z,59.39
2022-09-26T20:48:01.083Z,59.04
2022-09-26T20:51:27.815Z,59.23
2022-09-26T20:54:49.430Z,59.35
2022-09-26T20:58:13.062Z,59.20
2022-09-26T21:01:34.704Z,59.30
2022-09-26T21:04:57.896Z,59.20
2022-09-26T21:08:27.013Z,59.57
2022-09-26T21:11:49.266Z,59.27
2022-09-26T21:15:14.183Z,59.35
2022-09-26T21:18:35.799Z,59.04
2022-09-26T21:21:57.807Z,58.95
2022-09-26T21:25:32.222Z,59.07
2022-09-26T21:28:56.032Z,59.09
2022-09-26T21:32:22.126Z,59.43
2022-09-26T21:35:44.149Z,59.33
2022-09-26T21:39:06.510Z,59.32
2022-09-26T21:42:27.772Z,59.79
2022-09-26T21:45:49.621Z,60.11
2022-09-26T21:49:12.931Z,59.60
2022-09-26T21:52:37.566Z,59.76
2022-09-26T21:56:07.302Z,60.10
2022-09-26T21:59:30.964Z,60.25
2022-09-26T22:02:52.449Z,60.31
2022-09-26T22:06:15.776Z,60.30
2022-09-26T22:09:37.410Z,59.89
2022-09-26T22:12:59.595Z,60.48
2022-09-26T22:16:21.310Z,60.13
2022-09-26T22:19:43.347Z,60.35
2022-09-26T22:23:06.480Z,60.53
2022-09-26T22:26:28.040Z,60.11
2022-09-26T22:29:49.975Z,60.70
2022-09-26T22:33:11.621Z,60.41
2022-09-26T22:36:33.715Z,60.30
2022-09-26T22:39:56.681Z,60.44
2022-09-26T22:43:18.198Z,60.40
2022-09-26T22:46:39.591Z,60.58
2022-09-26T22:50:01.386Z,60.62
2022-09-26T22:53:22.765Z,60.96
2022-09-26T22:56:46.101Z,60.84
2022-09-26T23:00:09.031Z,60.62
2022-09-26T23:03:30.714Z,60.58
2022-09-26T23:06:53.218Z,60.55
2022-09-26T23:10:14.919Z,61.11
2022-09-26T23:13:37.922Z,60.83
2022-09-26T23:16:59.581Z,60.77
2022-09-26T23:20:21.364Z,61.16
2022-09-26T23:23:44.358Z,61.38
2022-09-26T23:27:06.185Z,61.65
2022-09-26T23:30:29.378Z,61.63
2022-09-26T23:33:50.930Z,61.80
2022-09-26T23:37:12.478Z,61.51
2022-09-26T23:40:34.683Z,62.17
2022-09-26T23:43:56.260Z,62.49
2022-09-26T23:47:19.509Z,62.21
2022-09-26T23:50:41.513Z,62.26
2022-09-26T23:54:03.259Z,62.41
2022-09-26T23:57:24.845Z,62.31
